createdAt,value
2018-11-04T00:04:58.174Z,29
2018-11-04T00:10:00.608Z,31
2018-11-04T00:15:03.054Z,33
2018-11-04T00:20:05.493Z,31
2018-11-04T00:25:07.947Z,32
2018-11-04T00:30:10.375Z,33
2018-11-04T00:35:12.808Z,33
2018-11-04T00:40:15.247Z,35
2018-11-04T00:45:17.747Z,35
2018-11-04T00:50:20.131Z,40
2018-11-04T00:55:22.572Z,40
2018-11-04T01:00:25.042Z,40
2018-11-04T01:05:27.440Z,39
2018-11-04T01:10:29.986Z,42
2018-11-04T01:15:32.324Z,38
2018-11-04T01:20:34.760Z,39
2018-11-04T01:25:37.217Z,39
2018-11-04T01:30:39.659Z,43
2018-11-04T01:35:42.088Z,40
2018-11-04T01:40:44.536Z,36
2018-11-04T01:45:46.985Z,37
2018-11-04T01:50:49.415Z,40
2018-11-04T01:55:51.892Z,38
2018-11-04T02:00:54.321Z,36
2018-11-04T02:05:56.735Z,38
2018-11-04T02:10:59.182Z,40
2018-11-04T02:16:01.613Z,42
2018-11-04T02:26:06.502Z,35
2018-11-04T02:31:08.926Z,34
2018-11-04T02:36:11.379Z,34
2018-11-04T02:41:13.886Z,31
2018-11-04T02:46:16.243Z,34
2018-11-04T02:51:18.707Z,26
2018-11-04T02:56:21.171Z,28
2018-11-04T03:01:23.577Z,25
2018-11-04T03:06:26.016Z,25
2018-11-04T03:11:28.509Z,22
2018-11-04T03:16:30.984Z,22
2018-11-04T03:21:33.340Z,21
2018-11-04T03:26:35.788Z,20
2018-11-04T03:31:38.215Z,20
2018-11-04T03:36:40.656Z,23
2018-11-04T03:41:43.095Z,23
2018-11-04T03:46:45.526Z,28
2018-11-04T03:51:47.972Z,25
2018-11-04T04:01:52.897Z,24
2018-11-04T04:06:55.301Z,23
2018-11-04T04:11:57.741Z,25
2018-11-04T04:17:00.161Z,23
2018-11-04T04:22:02.606Z,23
2018-11-04T04:27:05.121Z,22
2018-11-04T04:32:07.491Z,27
2018-11-04T04:37:09.950Z,26
2018-11-04T04:42:12.391Z,28
2018-11-04T04:47:14.903Z,24
2018-11-04T04:52:17.244Z,26
2018-11-04T04:57:19.699Z,26
2018-11-04T05:02:22.161Z,25
2018-11-04T05:07:24.575Z,23
2018-11-04T05:12:27.009Z,26
2018-11-04T05:17:29.480Z,24
2018-11-04T05:22:31.892Z,22
2018-11-04T05:27:34.347Z,19
2018-11-04T05:32:41.768Z,22
2018-11-04T05:37:39.266Z,21
2018-11-04T05:42:41.646Z,21
2018-11-04T05:47:44.089Z,28
2018-11-04T05:52:46.538Z,20
2018-11-04T05:57:49.024Z,14
2018-11-04T06:02:51.421Z,13
2018-11-04T06:07:53.839Z,14
2018-11-04T06:12:56.289Z,11
2018-11-04T06:17:58.733Z,13
2018-11-04T06:23:01.169Z,10
2018-11-04T06:28:03.606Z,10
2018-11-04T06:33:06.054Z,11
2018-11-04T06:38:08.480Z,13
2018-11-04T06:43:10.933Z,10
2018-11-04T06:48:13.366Z,9
2018-11-04T06:53:15.839Z,9
2018-11-04T06:58:18.254Z,9
2018-11-04T07:03:20.734Z,10
2018-11-04T07:08:23.129Z,10
2018-11-04T07:13:25.604Z,8
2018-11-04T07:18:28.013Z,7
2018-11-04T07:23:30.455Z,8
2018-11-04T07:28:32.915Z,8
2018-11-04T07:33:35.343Z,6
2018-11-04T07:38:37.787Z,6
2018-11-04T07:43:40.206Z,5
2018-11-04T07:48:42.672Z,7
2018-11-04T07:53:45.082Z,18
2018-11-04T07:58:47.527Z,6
2018-11-04T08:03:49.972Z,9
2018-11-04T08:08:52.415Z,15
2018-11-04T08:13:54.854Z,7
2018-11-04T08:18:57.301Z,8
2018-11-04T08:23:59.769Z,5
2018-11-04T08:29:02.195Z,5
2018-11-04T08:34:04.605Z,4
2018-11-04T08:39:07.052Z,4
2018-11-04T08:44:09.500Z,4
2018-11-04T08:49:11.944Z,4
2018-11-04T08:54:14.369Z,3
2018-11-04T08:59:16.815Z,4
2018-11-04T09:04:19.266Z,5
2018-11-04T09:09:21.696Z,4
2018-11-04T09:14:24.223Z,3
2018-11-04T09:19:26.573Z,3
2018-11-04T09:24:29.011Z,3
2018-11-04T09:29:31.443Z,5
2018-11-04T09:34:33.935Z,5
2018-11-04T09:39:36.328Z,7
2018-11-04T09:44:38.769Z,5
2018-11-04T09:49:41.230Z,5
2018-11-04T09:54:43.707Z,3
2018-11-04T09:59:46.258Z,3
2018-11-04T10:04:48.527Z,3
2018-11-04T10:09:50.975Z,3
2018-11-04T10:14:53.418Z,4
2018-11-04T10:19:56.172Z,4
2018-11-04T10:24:58.313Z,4
2018-11-04T10:30:00.808Z,4
2018-11-04T10:35:03.202Z,3
2018-11-04T10:40:05.668Z,4
2018-11-04T10:45:08.062Z,4
2018-11-04T10:50:10.497Z,5
2018-11-04T10:55:12.971Z,5
2018-11-04T11:00:15.453Z,5
2018-11-04T11:05:17.816Z,5
2018-11-04T11:10:20.278Z,5
2018-11-04T11:15:22.699Z,5
2018-11-04T11:20:25.133Z,5
2018-11-04T11:25:27.576Z,6
2018-11-04T11:30:30.029Z,6
2018-11-04T11:35:32.452Z,6
2018-11-04T11:40:34.936Z,6
2018-11-04T11:45:37.331Z,8
2018-11-04T11:50:39.774Z,8
2018-11-04T11:55:42.250Z,9
2018-11-04T12:00:44.697Z,8
2018-11-04T12:05:47.104Z,8
2018-11-04T12:10:49.542Z,7
2018-11-04T12:15:51.986Z,7
2018-11-04T12:20:54.417Z,7
2018-11-04T12:25:56.859Z,6
2018-11-04T12:30:59.296Z,9
2018-11-04T12:36:01.744Z,8
2018-11-04T12:41:04.177Z,8
2018-11-04T12:46:06.645Z,8
2018-11-04T12:51:09.059Z,8
2018-11-04T12:56:11.501Z,8
2018-11-04T13:01:13.938Z,8
2018-11-04T13:06:16.386Z,8
2018-11-04T13:11:18.903Z,10
2018-11-04T13:16:21.260Z,8
2018-11-04T13:26:26.159Z,10
2018-11-04T13:31:28.664Z,12
2018-11-04T13:36:31.049Z,10
2018-11-04T13:41:33.470Z,7
2018-11-04T13:46:35.913Z,9
2018-11-04T13:51:38.344Z,11
2018-11-04T13:56:40.790Z,10
2018-11-04T14:01:43.226Z,10
2018-11-04T14:06:45.666Z,9
2018-11-04T14:11:48.103Z,10
2018-11-04T14:16:50.573Z,10
2018-11-04T14:21:53.012Z,10
2018-11-04T14:26:55.429Z,10
2018-11-04T14:31:57.878Z,15
2018-11-04T14:37:00.322Z,10
2018-11-04T14:42:02.805Z,10
2018-11-04T14:47:05.189Z,13
2018-11-04T14:52:07.617Z,15
2018-11-04T14:57:10.079Z,15
2018-11-04T15:02:12.510Z,15
2018-11-04T15:07:14.987Z,14
2018-11-04T15:12:17.384Z,17
2018-11-04T15:17:19.843Z,14
2018-11-04T15:22:22.267Z,16
2018-11-04T15:27:24.710Z,13
2018-11-04T15:32:27.165Z,14
2018-11-04T15:37:29.640Z,13
2018-11-04T15:42:32.026Z,15
2018-11-04T15:47:34.471Z,14
2018-11-04T15:52:36.897Z,14
2018-11-04T15:57:39.358Z,14
2018-11-04T16:02:41.889Z,15
2018-11-04T16:07:44.234Z,15
2018-11-04T16:12:46.667Z,15
2018-11-04T16:17:49.114Z,16
2018-11-04T16:22:51.543Z,16
2018-11-04T16:27:53.996Z,17
2018-11-04T16:32:56.442Z,16
2018-11-04T16:37:58.986Z,16
2018-11-04T16:43:01.326Z,21
2018-11-04T16:48:03.756Z,24
2018-11-04T16:53:06.198Z,25
2018-11-04T16:58:08.625Z,22
2018-11-04T17:03:11.071Z,23
2018-11-04T17:08:13.534Z,25
2018-11-04T17:13:15.989Z,26
2018-11-04T17:18:18.453Z,30
2018-11-04T17:23:20.824Z,32
2018-11-04T17:28:23.266Z,33
2018-11-04T17:33:25.714Z,34
2018-11-04T17:38:28.199Z,36
2018-11-04T17:43:30.581Z,39
2018-11-04T17:48:33.027Z,39
2018-11-04T17:53:35.508Z,37
2018-11-04T17:58:37.922Z,46
2018-11-04T18:03:40.359Z,41
2018-11-04T18:08:42.793Z,42
2018-11-04T18:13:45.363Z,44
2018-11-04T18:18:47.662Z,58
2018-11-04T18:23:50.123Z,47
2018-11-04T18:28:52.545Z,50
2018-11-04T18:33:54.986Z,46
2018-11-04T18:38:57.430Z,51
2018-11-04T18:44:00.035Z,55
2018-11-04T18:49:02.312Z,51
2018-11-04T18:54:04.778Z,54
2018-11-04T18:59:07.195Z,54
2018-11-04T19:04:09.643Z,55
2018-11-04T19:09:12.096Z,54
2018-11-04T19:14:14.591Z,55
2018-11-04T19:19:16.961Z,53
2018-11-04T19:24:19.388Z,56
2018-11-04T19:29:21.853Z,53
2018-11-04T19:34:24.263Z,51
2018-11-04T19:39:26.703Z,56
2018-11-04T19:44:29.147Z,59
2018-11-04T19:49:31.582Z,55
2018-11-04T19:54:34.023Z,56
2018-11-04T19:59:36.512Z,60
2018-11-04T20:04:38.975Z,63
2018-11-04T20:09:41.378Z,59
2018-11-04T20:14:43.787Z,58
2018-11-04T20:19:46.322Z,64
2018-11-04T20:24:48.680Z,64
2018-11-04T20:29:51.123Z,57
2018-11-04T20:34:53.569Z,60
2018-11-04T20:39:55.997Z,61
2018-11-04T20:44:58.555Z,60
2018-11-04T20:50:00.891Z,60
2018-11-04T20:55:03.329Z,62
2018-11-04T21:00:10.753Z,56
2018-11-04T21:05:08.208Z,59
2018-11-04T21:10:10.646Z,56
2018-11-04T21:15:13.080Z,59
2018-11-04T21:20:15.525Z,56
2018-11-04T21:25:17.989Z,62
2018-11-04T21:30:20.407Z,60
2018-11-04T21:35:22.952Z,59
2018-11-04T21:40:25.311Z,58
2018-11-04T21:45:27.729Z,60
2018-11-04T21:50:30.159Z,56
2018-11-04T21:55:32.857Z,60
2018-11-04T22:00:35.059Z,55
2018-11-04T22:05:37.485Z,54
2018-11-04T22:10:40.112Z,55
2018-11-04T22:15:42.370Z,51
2018-11-04T22:20:44.833Z,58
2018-11-04T22:25:47.250Z,60
2018-11-04T22:30:49.673Z,57
2018-11-04T22:35:52.139Z,57
2018-11-04T22:40:54.570Z,55
2018-11-04T22:45:57.010Z,58
2018-11-04T22:50:59.462Z,57
2018-11-04T22:56:02.079Z,58
2018-11-04T23:01:04.325Z,54
2018-11-04T23:06:06.779Z,53
2018-11-04T23:11:09.213Z,59
2018-11-04T23:16:11.672Z,60
2018-11-04T23:21:14.096Z,64
2018-11-04T23:26:16.531Z,64
2018-11-04T23:31:18.959Z,65
2018-11-04T23:36:21.406Z,59
2018-11-04T23:41:23.837Z,63
2018-11-04T23:46:26.287Z,57
2018-11-04T23:51:29.123Z,52
2018-11-04T23:56:31.167Z,60
